createdAt,value
2022-08-18T00:01:33.111Z,95555.75
2022-08-18T00:04:03.538Z,95556.03
2022-08-18T00:06:37.736Z,95560.28
2022-08-18T00:09:08.237Z,95567.00
2022-08-18T00:11:41.522Z,95565.94
2022-08-18T00:14:22.456Z,95572.09
2022-08-18T00:16:51.251Z,95569.41
2022-08-18T00:19:17.901Z,95569.94
2022-08-18T00:21:44.570Z,95579.56
2022-08-18T00:24:11.137Z,95581.72
2022-08-18T00:26:37.835Z,95577.44
2022-08-18T00:29:04.520Z,95577.44
2022-08-18T00:31:31.715Z,95570.44
2022-08-18T00:33:58.732Z,95576.59
2022-08-18T00:36:25.396Z,95580.63
2022-08-18T00:38:52.330Z,95576.84
2022-08-18T00:41:19.439Z,95573.06
2022-08-18T00:43:49.250Z,95564.75
2022-08-18T00:46:28.724Z,95574.16
2022-08-18T00:48:55.919Z,95571.72
2022-08-18T00:51:29.958Z,95572.22
2022-08-18T00:54:03.253Z,95578.38
2022-08-18T00:56:35.610Z,95575.19
2022-08-18T00:59:14.460Z,95583.72
2022-08-18T01:01:42.474Z,95591.75
2022-08-18T01:04:18.334Z,95592.84
2022-08-18T01:06:52.072Z,95599.81
2022-08-18T01:09:19.222Z,95588.31
2022-08-18T01:11:46.042Z,95588.00
2022-08-18T01:14:18.382Z,95583.41
2022-08-18T01:17:08.433Z,95586.34
2022-08-18T01:19:53.993Z,95582.53
2022-08-18T01:22:27.082Z,95583.84
2022-08-18T01:25:15.681Z,95581.97
2022-08-18T01:27:42.260Z,95578.19
2022-08-18T01:30:12.472Z,95572.81
2022-08-18T01:32:40.061Z,95566.59
2022-08-18T01:35:09.767Z,95567.97
2022-08-18T01:37:37.192Z,95566.59
2022-08-18T01:41:22.004Z,95569.00
2022-08-18T01:42:56.552Z,95562.31
2022-08-18T01:45:23.190Z,95562.06
2022-08-18T01:47:50.698Z,95558.31
2022-08-18T01:50:18.090Z,95554.81
2022-08-18T01:52:44.720Z,95561.50
2022-08-18T01:55:11.270Z,95559.84
2022-08-18T01:57:46.770Z,95550.72
2022-08-18T02:00:15.801Z,95553.94
2022-08-18T02:02:43.071Z,95552.09
2022-08-18T02:05:19.836Z,95553.72
2022-08-18T02:07:46.690Z,95547.53
2022-08-18T02:10:16.324Z,95549.34
2022-08-18T02:12:44.019Z,95546.94
2022-08-18T02:15:12.115Z,95548.28
2022-08-18T02:17:40.118Z,95539.41
2022-08-18T02:20:08.842Z,95531.88
2022-08-18T02:22:35.702Z,95536.13
2022-08-18T02:25:02.367Z,95535.06
2022-08-18T02:27:29.762Z,95531.28
2022-08-18T02:30:00.282Z,95517.91
2022-08-18T02:32:27.295Z,95516.78
2022-08-18T02:34:56.089Z,95517.28
2022-08-18T02:37:23.046Z,95515.38
2022-08-18T02:39:49.702Z,95520.44
2022-08-18T02:42:16.407Z,95525.78
2022-08-18T02:44:43.431Z,95526.56
2022-08-18T02:47:10.729Z,95527.38
2022-08-18T02:49:37.372Z,95527.09
2022-08-18T02:52:04.474Z,95531.09
2022-08-18T02:54:31.106Z,95530.03
2022-08-18T02:56:57.622Z,95541.81
2022-08-18T02:59:27.811Z,95540.22
2022-08-18T03:01:56.429Z,95547.19
2022-08-18T03:04:30.441Z,95542.88
2022-08-18T03:07:00.643Z,95541.25
2022-08-18T03:09:28.294Z,95549.53
2022-08-18T03:11:54.990Z,95548.47
2022-08-18T03:14:21.567Z,95559.66
2022-08-18T03:16:53.539Z,95570.63
2022-08-18T03:19:23.286Z,95562.56
2022-08-18T03:21:50.201Z,95571.63
2022-08-18T03:24:22.718Z,95567.88
2022-08-18T03:26:52.273Z,95572.66
2022-08-18T03:29:19.876Z,95568.44
2022-08-18T03:31:48.863Z,95556.13
2022-08-18T03:34:16.035Z,95570.53
2022-08-18T03:36:42.707Z,95577.50
2022-08-18T03:39:11.851Z,95569.72
2022-08-18T03:41:44.419Z,95574.53
2022-08-18T03:44:25.164Z,95572.66
2022-08-18T03:46:51.764Z,95571.84
2022-08-18T03:49:20.420Z,95556.09
2022-08-18T03:51:48.668Z,95556.13
2022-08-18T03:54:17.484Z,95558.81
2022-08-18T03:56:46.297Z,95565.25
2022-08-18T03:59:19.771Z,95567.09
2022-08-18T04:01:48.951Z,95565.25
2022-08-18T04:04:17.358Z,95571.34
2022-08-18T04:06:50.268Z,95569.00
2022-08-18T04:09:18.563Z,95569.00
2022-08-18T04:11:46.303Z,95581.34
2022-08-18T04:14:15.789Z,95583.50
2022-08-18T04:16:42.674Z,95587.75
2022-08-18T04:19:10.116Z,95589.97
2022-08-18T04:21:39.444Z,95592.63
2022-08-18T04:24:07.504Z,95596.66
2022-08-18T04:26:40.389Z,95595.91
2022-08-18T04:29:08.000Z,95594.31
2022-08-18T04:31:34.547Z,95582.56
2022-08-18T04:34:01.686Z,95585.25
2022-08-18T04:36:31.145Z,95583.09
2022-08-18T04:38:59.024Z,95584.72
2022-08-18T04:41:27.318Z,95587.72
2022-08-18T04:43:58.397Z,95588.50
2022-08-18T04:46:26.246Z,95586.41
2022-08-18T04:48:58.826Z,95585.84
2022-08-18T04:52:22.497Z,95586.94
2022-08-18T04:54:16.174Z,95589.66
2022-08-18T04:56:43.654Z,95589.69
2022-08-18T04:59:14.423Z,95590.84
2022-08-18T05:01:45.698Z,95587.94
2022-08-18T05:04:14.620Z,95593.31
2022-08-18T05:06:43.456Z,95597.59
2022-08-18T05:09:11.402Z,95587.16
2022-08-18T05:11:38.634Z,95593.59
2022-08-18T05:14:08.778Z,95591.19
2022-08-18T05:16:48.175Z,95600.09
2022-08-18T05:19:19.909Z,95597.16
2022-08-18T05:21:52.238Z,95592.09
2022-08-18T05:24:21.455Z,95595.84
2022-08-18T05:26:49.023Z,95603.63
2022-08-18T05:29:18.520Z,95600.97
2022-08-18T05:31:46.349Z,95602.34
2022-08-18T05:34:13.023Z,95599.16
2022-08-18T05:36:48.805Z,95601.25
2022-08-18T05:39:24.523Z,95607.72
2022-08-18T05:42:03.004Z,95606.69
2022-08-18T05:44:32.971Z,95613.13
2022-08-18T05:47:06.664Z,95609.41
2022-08-18T05:49:36.073Z,95602.72
2022-08-18T05:52:34.938Z,95613.19
2022-08-18T05:55:28.942Z,95605.69
2022-08-18T05:58:02.491Z,95615.09
2022-08-18T06:00:30.745Z,95622.38
2022-08-18T06:03:09.073Z,95625.91
2022-08-18T06:05:44.818Z,95623.50
2022-08-18T06:08:14.066Z,95625.66
2022-08-18T06:10:46.534Z,95613.06
2022-08-18T06:13:13.613Z,95618.19
2022-08-18T06:15:49.823Z,95613.91
2022-08-18T06:18:37.620Z,95609.91
2022-08-18T06:21:41.443Z,95616.13
2022-08-18T06:24:40.543Z,95608.09
2022-08-18T06:27:31.161Z,95607.00
2022-08-18T06:30:05.691Z,95602.75
2022-08-18T06:33:10.038Z,95610.53
2022-08-18T06:35:50.538Z,95604.94
2022-08-18T06:38:36.847Z,95607.34
2022-08-18T06:41:08.587Z,95614.63
2022-08-18T06:43:38.812Z,95607.38
2022-08-18T06:46:12.460Z,95607.06
2022-08-18T06:48:54.994Z,95605.97
2022-08-18T06:51:27.897Z,95598.16
2022-08-18T06:54:20.818Z,95600.03
2022-08-18T06:56:53.301Z,95601.88
2022-08-18T06:59:29.708Z,95606.72
2022-08-18T07:02:22.834Z,95602.94
2022-08-18T07:05:19.817Z,95597.78
2022-08-18T07:07:58.933Z,95603.09
2022-08-18T07:10:25.662Z,95594.97
2022-08-18T07:12:52.537Z,95602.97
2022-08-18T07:15:24.593Z,95597.22
2022-08-18T07:17:51.166Z,95600.13
2022-08-18T07:20:24.418Z,95602.25
2022-08-18T07:23:08.244Z,95601.91
2022-08-18T07:25:41.317Z,95595.91
2022-08-18T07:28:26.757Z,95600.41
2022-08-18T07:31:16.337Z,95591.97
2022-08-18T07:33:51.427Z,95592.38
2022-08-18T07:36:21.624Z,95599.88
2022-08-18T07:39:00.882Z,95596.31
2022-08-18T07:41:38.156Z,95593.91
2022-08-18T07:44:16.983Z,95594.56
2022-08-18T07:46:52.196Z,95595.75
2022-08-18T07:49:22.651Z,95599.81
2022-08-18T07:52:06.401Z,95587.72
2022-08-18T07:55:11.673Z,95586.97
2022-08-18T07:58:15.430Z,95587.34
2022-08-18T08:00:58.927Z,95586.91
2022-08-18T08:03:32.071Z,95596.16
2022-08-18T08:06:33.482Z,95593.78
2022-08-18T08:09:36.570Z,95602.81
2022-08-18T08:12:23.297Z,95599.44
2022-08-18T08:14:58.252Z,95594.34
2022-08-18T08:17:33.326Z,95590.88
2022-08-18T08:20:01.643Z,95597.00
2022-08-18T08:22:39.534Z,95591.31
2022-08-18T08:25:45.025Z,95580.88
2022-08-18T08:28:25.659Z,95583.59
2022-08-18T08:34:11.170Z,95586.88
2022-08-18T08:36:45.192Z,95582.69
2022-08-18T08:39:38.382Z,95574.44
2022-08-18T08:42:31.713Z,95577.56
2022-08-18T08:45:05.225Z,95577.84
2022-08-18T08:47:40.966Z,95573.91
2022-08-18T08:50:18.268Z,95580.25
2022-08-18T08:52:57.117Z,95577.44
2022-08-18T08:55:34.231Z,95577.00
2022-08-18T08:58:06.898Z,95573.38
2022-08-18T09:00:34.051Z,95575.19
2022-08-18T09:03:00.705Z,95573.16
2022-08-18T09:05:51.097Z,95576.34
2022-08-18T09:08:24.334Z,95565.66
2022-08-18T09:11:13.558Z,95561.59
2022-08-18T09:13:58.654Z,95563.38
2022-08-18T09:16:44.434Z,95565.19
2022-08-18T09:19:48.672Z,95560.31
2022-08-18T09:22:24.204Z,95560.88
2022-08-18T09:24:55.861Z,95566.03
2022-08-18T09:28:08.911Z,95557.63
2022-08-18T09:30:49.257Z,95565.94
2022-08-18T09:33:33.551Z,95568.22
2022-08-18T09:36:20.462Z,95579.06
2022-08-18T09:39:18.522Z,95572.88
2022-08-18T09:41:52.055Z,95569.44
2022-08-18T09:44:42.881Z,95575.06
2022-08-18T09:47:10.247Z,95570.94
2022-08-18T09:52:37.452Z,95575.56
2022-08-18T09:55:27.488Z,95578.75
2022-08-18T09:58:15.673Z,95575.28
2022-08-18T10:00:44.236Z,95573.22
2022-08-18T10:03:17.295Z,95569.41
2022-08-18T10:06:03.797Z,95570.22
2022-08-18T10:08:59.215Z,95572.31
2022-08-18T10:11:42.332Z,95568.16
2022-08-18T10:14:09.732Z,95566.06
2022-08-18T10:20:25.992Z,95568.66
2022-08-18T10:22:54.506Z,95570.06
2022-08-18T10:25:52.852Z,95569.88
2022-08-18T10:28:50.067Z,95568.50
2022-08-18T10:31:18.839Z,95579.88
2022-08-18T10:34:16.578Z,95572.88
2022-08-18T10:37:26.007Z,95573.19
2022-08-18T10:40:13.259Z,95574.66
2022-08-18T10:43:34.314Z,95574.19
2022-08-18T10:46:24.251Z,95565.56
2022-08-18T10:48:44.337Z,95567.81
2022-08-18T10:51:24.857Z,95567.31
2022-08-18T10:54:07.868Z,95571.66
2022-08-18T10:56:45.548Z,95567.63
2022-08-18T10:59:48.975Z,95564.72
2022-08-18T11:02:45.346Z,95554.78
2022-08-18T11:05:20.176Z,95555.38
2022-08-18T11:07:53.482Z,95558.91
2022-08-18T11:10:58.045Z,95553.09
2022-08-18T11:13:33.521Z,95545.84
2022-08-18T11:16:25.426Z,95546.25
2022-08-18T11:19:17.129Z,95543.84
2022-08-18T11:21:51.256Z,95540.97
2022-08-18T11:24:24.871Z,95540.97
2022-08-18T11:27:04.452Z,95528.78
2022-08-18T11:29:42.854Z,95524.91
2022-08-18T11:32:27.702Z,95528.03
2022-08-18T11:35:01.539Z,95533.25
2022-08-18T11:37:51.638Z,95536.16
2022-08-18T11:41:02.174Z,95529.22
2022-08-18T11:43:12.425Z,95519.94
2022-08-18T11:45:52.570Z,95521.81
2022-08-18T11:48:39.073Z,95521.34
2022-08-18T11:51:23.419Z,95519.94
2022-08-18T11:53:58.268Z,95525.13
2022-08-18T11:56:32.233Z,95512.31
2022-08-18T11:59:04.373Z,95521.44
2022-08-18T12:01:51.356Z,95512.25
2022-08-18T12:04:38.508Z,95502.38
2022-08-18T12:07:08.354Z,95498.47
2022-08-18T12:12:32.417Z,95483.50
2022-08-18T12:15:07.954Z,95491.34
2022-08-18T12:17:41.977Z,95488.00
2022-08-18T12:20:11.855Z,95491.50
2022-08-18T12:22:41.344Z,95484.94
2022-08-18T12:25:12.733Z,95477.34
2022-08-18T12:27:40.510Z,95477.72
2022-08-18T12:30:16.478Z,95481.47
2022-08-18T12:32:49.633Z,95481.47
2022-08-18T12:35:21.672Z,95474.31
2022-08-18T12:40:35.593Z,95464.97
2022-08-18T12:43:02.187Z,95454.75
2022-08-18T12:45:31.215Z,95457.38
2022-08-18T12:47:59.692Z,95443.72
2022-08-18T12:50:31.150Z,95449.88
2022-08-18T12:53:02.514Z,95454.31
2022-08-18T12:55:34.465Z,95446.47
2022-08-18T12:58:01.766Z,95436.88
2022-08-18T13:00:29.349Z,95438.81
2022-08-18T13:02:57.421Z,95435.72
2022-08-18T13:05:26.660Z,95425.16
2022-08-18T13:07:58.327Z,95415.69
2022-08-18T13:10:42.823Z,95411.03
2022-08-18T13:13:12.392Z,95408.31
2022-08-18T13:15:38.978Z,95410.44
2022-08-18T13:18:14.419Z,95409.88
2022-08-18T13:20:45.163Z,95406.56
2022-08-18T13:23:11.993Z,95400.88
2022-08-18T13:25:39.785Z,95399.63
2022-08-18T13:28:06.736Z,95395.16
2022-08-18T13:30:35.553Z,95404.25
2022-08-18T13:33:05.975Z,95403.84
2022-08-18T13:35:52.450Z,95406.00
2022-08-18T13:38:27.563Z,95400.50
2022-08-18T13:40:58.261Z,95412.00
2022-08-18T13:43:32.045Z,95410.78
2022-08-18T13:45:59.990Z,95413.94
2022-08-18T13:48:28.396Z,95411.19
2022-08-18T13:51:01.051Z,95414.28
2022-08-18T13:53:30.017Z,95420.41
2022-08-18T13:55:58.896Z,95423.47
2022-08-18T13:58:27.138Z,95428.69
2022-08-18T14:01:16.307Z,95423.97
2022-08-18T14:03:49.953Z,95436.00
2022-08-18T14:06:22.656Z,95433.50
2022-08-18T14:08:51.435Z,95432.06
2022-08-18T14:11:18.785Z,95429.88
2022-08-18T14:13:45.526Z,95437.63
2022-08-18T14:16:18.919Z,95445.09
2022-08-18T14:19:10.413Z,95445.47
2022-08-18T14:22:11.434Z,95448.13
2022-08-18T14:24:58.944Z,95454.41
2022-08-18T14:27:35.301Z,95456.44
2022-08-18T14:30:11.500Z,95460.84
2022-08-18T14:32:48.803Z,95462.13
2022-08-18T14:35:33.286Z,95469.06
2022-08-18T14:38:04.047Z,95469.75
2022-08-18T14:40:33.424Z,95470.66
2022-08-18T14:54:57.202Z,95475.38
2022-08-18T14:57:23.714Z,95468.44
2022-08-18T14:59:50.712Z,95466.06
2022-08-18T15:02:18.847Z,95468.81
2022-08-18T15:04:53.129Z,95462.00
2022-08-18T15:07:25.039Z,95466.41
2022-08-18T15:10:15.139Z,95463.78
2022-08-18T15:12:39.479Z,95457.97
2022-08-18T15:15:09.161Z,95461.50
2022-08-18T15:17:38.475Z,95456.03
2022-08-18T15:20:10.441Z,95448.28
2022-08-18T15:23:04.101Z,95449.41
2022-08-18T15:25:44.909Z,95444.19
2022-08-18T15:28:20.987Z,95451.16
2022-08-18T15:30:49.787Z,95450.94
2022-08-18T15:33:23.582Z,95449.69
2022-08-18T15:35:51.003Z,95436.47
2022-08-18T15:38:19.238Z,95443.09
2022-08-18T15:40:57.133Z,95446.94
2022-08-18T15:43:29.008Z,95446.50
2022-08-18T15:45:57.862Z,95443.66
2022-08-18T15:48:26.482Z,95443.56
2022-08-18T15:50:53.301Z,95461.09
2022-08-18T15:53:23.346Z,95470.22
2022-08-18T15:55:50.405Z,95465.97
2022-08-18T15:58:22.296Z,95470.66
2022-08-18T16:00:50.591Z,95476.66
2022-08-18T16:03:20.475Z,95470.44
2022-08-18T16:05:53.413Z,95473.59
2022-08-18T16:08:25.184Z,95468.34
2022-08-18T16:10:52.843Z,95474.28
2022-08-18T16:13:20.270Z,95472.59
2022-08-18T16:15:48.501Z,95456.09
2022-08-18T16:18:17.218Z,95457.47
2022-08-18T16:20:44.451Z,95457.00
2022-08-18T16:23:12.465Z,95454.16
2022-08-18T16:25:40.130Z,95450.16
2022-08-18T16:28:07.396Z,95456.78
2022-08-18T16:30:34.636Z,95458.81
2022-08-18T16:33:04.097Z,95458.34
2022-08-18T16:35:32.463Z,95467.69
2022-08-18T16:38:04.499Z,95466.78
2022-08-18T16:40:31.121Z,95460.88
2022-08-18T16:43:00.053Z,95455.66
2022-08-18T16:45:28.046Z,95465.06
2022-08-18T16:47:55.679Z,95459.03
2022-08-18T16:50:24.936Z,95461.34
2022-08-18T16:52:51.980Z,95454.97
2022-08-18T16:55:18.800Z,95452.34
2022-08-18T16:58:03.679Z,95461.56
2022-08-18T17:00:54.931Z,95468.06
2022-08-18T17:03:42.126Z,95462.38
2022-08-18T17:06:12.187Z,95462.69
2022-08-18T17:08:40.210Z,95462.50
2022-08-18T17:11:11.434Z,95467.41
2022-08-18T17:13:40.099Z,95480.72
2022-08-18T17:16:07.329Z,95483.63
2022-08-18T17:18:36.120Z,95485.09
2022-08-18T17:21:07.754Z,95484.53
2022-08-18T17:23:34.659Z,95477.72
2022-08-18T17:26:09.212Z,95480.22
2022-08-18T17:28:43.936Z,95474.34
2022-08-18T17:31:20.544Z,95472.28
2022-08-18T17:33:47.082Z,95475.03
2022-08-18T17:36:21.320Z,95473.31
2022-08-18T17:39:03.054Z,95468.09
2022-08-18T17:41:29.715Z,95467.63
2022-08-18T17:44:00.830Z,95465.25
2022-08-18T17:46:37.225Z,95478.22
2022-08-18T17:49:12.859Z,95476.81
2022-08-18T17:51:46.563Z,95476.03
2022-08-18T17:54:49.536Z,95485.31
2022-08-18T17:57:32.508Z,95486.22
2022-08-18T18:00:06.224Z,95486.03
2022-08-18T18:02:33.464Z,95477.88
2022-08-18T18:05:02.134Z,95473.22
2022-08-18T18:07:35.592Z,95485.09
2022-08-18T18:10:08.285Z,95491.75
2022-08-18T18:12:37.265Z,95504.50
2022-08-18T18:15:11.811Z,95494.88
2022-08-18T18:17:41.415Z,95497.88
2022-08-18T18:20:32.938Z,95506.09
2022-08-18T18:23:17.889Z,95512.91
2022-08-18T18:25:44.462Z,95520.44
2022-08-18T18:28:33.259Z,95525.00
2022-08-18T18:31:26.409Z,95525.25
2022-08-18T18:34:06.262Z,95526.00
2022-08-18T18:36:43.121Z,95540.28
2022-08-18T18:39:33.962Z,95541.00
2022-08-18T18:42:18.103Z,95552.75
2022-08-18T18:44:54.006Z,95543.44
2022-08-18T18:47:40.187Z,95544.75
2022-08-18T18:50:12.275Z,95539.66
2022-08-18T18:52:57.097Z,95541.97
2022-08-18T18:55:27.068Z,95540.50
2022-08-18T18:58:07.027Z,95538.97
2022-08-18T19:00:54.101Z,95542.91
2022-08-18T19:03:43.739Z,95542.00
2022-08-18T19:06:37.782Z,95550.00
2022-08-18T19:09:17.450Z,95552.00
2022-08-18T19:11:57.735Z,95557.56
2022-08-18T19:14:59.884Z,95552.56
2022-08-18T19:17:44.836Z,95550.44
2022-08-18T19:20:16.127Z,95544.09
2022-08-18T19:23:04.562Z,95540.88
2022-08-18T19:25:50.052Z,95548.84
2022-08-18T19:28:25.795Z,95540.63
2022-08-18T19:30:56.612Z,95540.75
2022-08-18T19:33:49.755Z,95538.94
2022-08-18T19:36:21.033Z,95534.44
2022-08-18T19:39:13.191Z,95531.88
2022-08-18T19:41:48.263Z,95531.38
2022-08-18T19:44:47.344Z,95533.34
2022-08-18T19:47:44.616Z,95524.53
2022-08-18T19:50:23.913Z,95515.69
2022-08-18T19:52:53.216Z,95515.75
2022-08-18T19:55:41.647Z,95518.31
2022-08-18T19:58:20.135Z,95516.50
2022-08-18T20:01:01.310Z,95514.47
2022-08-18T20:03:52.498Z,95510.19
2022-08-18T20:06:36.081Z,95509.56
2022-08-18T20:09:50.426Z,95515.56
2022-08-18T20:12:20.729Z,95511.56
2022-08-18T20:15:18.640Z,95504.06
2022-08-18T20:17:54.021Z,95495.75
2022-08-18T20:20:22.619Z,95493.34
2022-08-18T20:22:56.465Z,95496.31
2022-08-18T20:25:23.603Z,95496.38
2022-08-18T20:27:59.585Z,95498.00
2022-08-18T20:30:50.787Z,95493.13
2022-08-18T20:33:29.970Z,95502.00
2022-08-18T20:36:03.948Z,95486.97
2022-08-18T20:38:38.321Z,95475.75
2022-08-18T20:41:30.092Z,95468.31
2022-08-18T20:44:11.408Z,95464.03
2022-08-18T20:46:43.442Z,95459.81
2022-08-18T20:49:38.198Z,95457.78
2022-08-18T20:52:29.129Z,95464.53
2022-08-18T20:55:12.047Z,95466.94
2022-08-18T20:57:40.309Z,95463.72
2022-08-18T21:00:12.875Z,95462.38
2022-08-18T21:02:46.027Z,95459.69
2022-08-18T21:05:18.876Z,95459.47
2022-08-18T21:08:14.222Z,95454.41
2022-08-18T21:11:09.173Z,95459.34
2022-08-18T21:13:41.650Z,95466.91
2022-08-18T21:16:10.818Z,95477.38
2022-08-18T21:18:38.447Z,95499.47
2022-08-18T21:21:27.147Z,95504.28
2022-08-18T21:23:55.852Z,95517.47
2022-08-18T21:26:23.150Z,95516.16
2022-08-18T21:28:54.543Z,95522.06
2022-08-18T21:31:42.881Z,95520.44
2022-08-18T21:34:28.566Z,95522.84
2022-08-18T21:36:57.972Z,95528.00
2022-08-18T21:39:25.291Z,95524.81
2022-08-18T21:41:54.826Z,95525.34
2022-08-18T21:44:34.968Z,95530.47
2022-08-18T21:47:10.096Z,95526.94
2022-08-18T21:49:37.759Z,95528.28
2022-08-18T21:52:04.328Z,95528.88
2022-08-18T21:54:34.426Z,95517.81
2022-08-18T21:57:24.306Z,95522.66
2022-08-18T22:00:23.019Z,95517.03
2022-08-18T22:02:52.316Z,95512.56
2022-08-18T22:05:57.847Z,95502.06
2022-08-18T22:08:22.983Z,95510.69
2022-08-18T22:12:00.451Z,95521.78
2022-08-18T22:14:30.310Z,95512.13
2022-08-18T22:17:27.301Z,95504.69
2022-08-18T22:19:54.474Z,95507.13
2022-08-18T22:22:42.222Z,95503.91
2022-08-18T22:25:12.323Z,95508.53
2022-08-18T22:27:40.134Z,95510.72
2022-08-18T22:30:08.065Z,95514.47
2022-08-18T22:32:38.295Z,95515.88
2022-08-18T22:35:06.906Z,95515.63
2022-08-18T22:37:48.798Z,95510.81
2022-08-18T22:40:21.610Z,95519.44
2022-08-18T22:42:48.613Z,95521.09
2022-08-18T22:45:15.510Z,95518.44
2022-08-18T22:47:42.895Z,95519.22
2022-08-18T22:50:11.051Z,95517.63
2022-08-18T22:52:41.103Z,95513.31
2022-08-18T22:55:11.300Z,95522.75
2022-08-18T22:57:39.773Z,95519.00
2022-08-18T23:00:10.240Z,95526.06
2022-08-18T23:02:37.136Z,95536.59
2022-08-18T23:05:05.134Z,95536.91
2022-08-18T23:07:32.594Z,95536.41
2022-08-18T23:09:59.185Z,95534.50
2022-08-18T23:12:26.269Z,95525.66
2022-08-18T23:14:53.468Z,95527.56
2022-08-18T23:17:23.617Z,95521.41
2022-08-18T23:19:52.061Z,95522.78
2022-08-18T23:22:19.415Z,95513.38
2022-08-18T23:24:46.013Z,95521.41
2022-08-18T23:27:12.538Z,95522.22
2022-08-18T23:29:39.786Z,95516.59
2022-08-18T23:32:06.968Z,95517.16
2022-08-18T23:34:34.451Z,95526.84
2022-08-18T23:37:03.255Z,95534.94
2022-08-18T23:39:32.520Z,95528.50
2022-08-18T23:42:00.761Z,95538.19
2022-08-18T23:44:28.048Z,95523.69
2022-08-18T23:46:59.116Z,95526.91
2022-08-18T23:49:30.325Z,95529.91
2022-08-18T23:51:58.252Z,95526.66
2022-08-18T23:54:28.676Z,95523.16
2022-08-18T23:56:55.265Z,95516.19
2022-08-18T23:59:23.924Z,95518.09
